EDISTO NM Southeast of Charleston, SC (41004)

Conditions for Tuesday

Daily
Weekly
Monthly
Marine Data Graph

Marine & Boating Location Search

Enter a coastal zip code for marine weather.

General Information

Location: 32.501 -79.099
Buoy Type: 3-meter discus buoy
Buoy Hull: 3D58
Payload: ARES payload
Owned by: NDBC
Windspeed: Measured by obtained from anemometer
Sea Surface: Measured by Intake
Note:
Right whales are active off SC from November to April. Speed restrictions of 10 knots apply to vessels 65 feet or greater in specific areas and times along the U.S. East Coast. It is illegal to approach right whales within 500 yards. To learn more about right whales and rules protecting them, go to: http://www.nmfs.noaa.gov/pr/shipstrike.

Weather and Wave Data

Time Temp Humidity Wind Dominant Wave Wind Wave Wave Swell Pressure
  Air
(°F)
Water
(°F)
  Dir Speed
(kts)
Speed
(mph)
Period
(sec)
Height
(ft)
Range
(ft)
Period
(sec)
Height
(ft)
Range
(ft)
Period
(sec)
Height
(ft)
Range
(ft)
Atmo.
(in)
Tend.
(in)
20:10 83 85 72 SSE 11.7 13.4 - - - - - - 29.99 -
20:40 83 85 77 South 9.7 11.2 - - - - - - 29.99 -
20:50 83 85 79 SSE 9.7 11.2 3 1.97 exactly 2.0 3 1.64 0.82 - 2.46 8 1.64 0.82 - 2.46 29.99 -
21:10 83 85 80 SSE 9.7 11.2 - - - - - - 29.99 -
21:20 83 85 80 South 11.7 13.4 - - - - - - 29.99 -
21:30 83 85 80 South 11.7 13.4 - - - - - - 29.99 -
21:40 83 85 80 South 11.7 13.4 - - - - - - 30.00 -
21:50 84 85 76 South 11.7 13.4 4 1.64 exactly 1.6 4 1.64 0.82 - 2.46 7 1.64 0.82 - 2.46 30.00 -
22:10 84 85 76 South 13.6 15.7 - - - - - - 29.99 -
22:20 84 85 76 South 13.6 15.7 - - - - - - 29.99 -
22:30 84 85 74 South 13.6 15.7 - - - - - - 29.99 -
22:50 84 85 74 South 15.6 17.9 8 1.97 exactly 2.0 3 1.64 0.82 - 2.46 8 1.64 0.82 - 2.46 29.99 -
23:10 84 85 75 South 13.6 15.7 - - - - - - 29.99 -
23:20 84 85 75 South 13.6 15.7 - - - - - - 29.99 -
23:30 84 85 74 South 13.6 15.7 - - - - - - 29.99 -
23:40 84 85 73 South 13.6 15.7 - - - - - - 29.99 -
00:10 84 85 75 South 13.6 15.7 - - - - - - 29.98 -
00:20 84 85 74 South 15.6 17.9 - - - - - - 29.98 -
00:30 84 85 75 South 15.6 17.9 - - - - - - 29.98 -
00:40 84 85 76 South 13.6 15.7 - - - - - - 29.99 -
00:50 84 85 77 SSW 13.6 15.7 3 2.30 exactly 2.3 3 1.64 0.82 - 2.46 8 1.64 0.82 - 2.46 29.98 -
01:10 84 85 74 SSW 15.6 17.9 - - - - - - 29.97 -
01:20 84 85 74 South 15.6 17.9 - - - - - - 29.97 -
01:40 84 84 75 South 15.6 17.9 - - - - - - 29.96 -
01:50 84 84 75 SSW 15.6 17.9 3 2.30 exactly 2.3 3 1.64 0.82 - 2.46 8 1.64 0.82 - 2.46 29.96 -
02:20 84 85 76 South 15.6 17.9 - - - - - - 29.96 -
02:30 84 84 75 SSW 17.5 20.1 - - - - - - 29.95 -
02:40 84 84 74 SSW 15.6 17.9 - - - - - - 29.95 -
03:10 84 84 75 SSW 15.6 17.9 - - - - - - 29.94 -
03:20 84 84 75 SSW 15.6 17.9 - - - - - - 29.95 -
03:30 84 84 76 SSW 13.6 15.7 - - - - - - 29.95 -
03:40 84 84 77 SSW 13.6 15.7 - - - - - - 29.94 -
03:50 84 84 75 SSW 15.6 17.9 4 2.62 exactly 2.6 4 3.28 2.46 - 4.10 8 1.64 0.82 - 2.46 29.94 -
04:10 84 84 74 SSW 15.6 17.9 - - - - - - 29.94 -
04:20 84 84 75 SSW 15.6 17.9 - - - - - - 29.94 -
04:40 84 84 76 SSW 15.6 17.9 - - - - - - 29.93 -
05:10 84 84 75 SSW 13.6 15.7 - - - - - - 29.93 -
05:30 84 84 75 SSW 15.6 17.9 - - - - - - 29.93 -
05:40 84 84 75 SSW 15.6 17.9 - - - - - - 29.93 -
05:50 83 84 78 SSW 13.6 15.7 4 2.95 exactly 3.0 4 3.28 2.46 - 4.10 8 1.64 0.82 - 2.46 29.93 -
06:20 83 84 77 SW 13.6 15.7 - - - - - - 29.94 -
06:30 82 84 78 WSW 11.7 13.4 - - - - - - 29.94 -
06:50 83 84 77 SSW 13.6 15.7 4 2.95 exactly 3.0 4 3.28 2.46 - 4.10 8 1.64 0.82 - 2.46 29.94 -
07:10 83 84 77 SW 13.6 15.7 - - - - - - 29.95 -
07:30 82 84 79 SSW 13.6 15.7 - - - - - - 29.95 -
07:50 81 84 75 SW 9.7 11.2 4 3.28 exactly 3.3 4 3.28 2.46 - 4.10 8 1.64 0.82 - 2.46 29.95 -
08:20 83 84 79 SSW 11.7 13.4 - - - - - - 29.96 -
08:30 83 84 78 SSW 11.7 13.4 - - - - - - 29.95 -
08:40 83 84 78 SW 11.7 13.4 - - - - - - 29.95 -
08:50 83 84 79 SW 9.7 11.2 4 3.28 exactly 3.3 4 3.28 2.46 - 4.10 7 1.64 0.82 - 2.46 29.95 -
09:10 83 84 79 WSW 11.7 13.4 - - - - - - 29.94 -
09:20 83 84 79 SW 9.7 11.2 - - - - - - 29.95 -
09:30 83 84 78 SW 11.7 13.4 - - - - - - 29.94 -
09:40 83 84 75 WSW 11.7 13.4 - - - - - - 29.94 -
09:50 83 84 74 West 7.8 8.9 5 3.28 exactly 3.3 5 3.28 2.46 - 4.10 8 1.64 0.82 - 2.46 29.94 -
10:10 83 84 76 West 7.8 8.9 - - - - - - 29.94 -
10:30 83 84 76 SW 9.7 11.2 - - - - - - 29.93 -
10:40 83 84 77 SW 9.7 11.2 - - - - - - 29.93 -
10:50 83 84 76 SW 9.7 11.2 5 3.28 exactly 3.3 4 1.64 0.82 - 2.46 5 1.64 0.82 - 2.46 29.93 -
11:10 83 84 71 SW 9.7 11.2 - - - - - - 29.92 -
11:20 83 84 73 SW 9.7 11.2 - - - - - - 29.93 -
11:30 83 84 74 SW 9.7 11.2 - - - - - - 29.93 -
11:40 83 84 76 SW 7.8 8.9 - - - - - - 29.93 -
11:50 83 84 77 SSW 7.8 8.9 4 2.95 exactly 3.0 4 1.64 0.82 - 2.46 4 3.28 2.46 - 4.10 29.92 -
12:00 83 84 78 SW 7.8 8.9 - - - - - - 29.93 -0.02
12:10 83 84 76 SW 7.8 8.9 - - - - - - 29.92 -
12:20 83 84 76 SW 7.8 8.9 - - - - - - 29.92 -
12:30 83 84 76 SW 7.8 8.9 - - - - - - 29.92 -
12:50 83 84 78 SSW 11.7 13.4 8 3.28 exactly 3.3 4 1.64 0.82 - 2.46 8 3.28 2.46 - 4.10 29.92 -
13:00 82 84 80 South 11.7 13.4 - - - - - - 29.91 -0.03
13:10 82 84 81 South 9.7 11.2 - - - - - - 29.91 -
13:40 83 84 75 SSW 9.7 11.2 - - - - - - 29.89 -
13:50 83 84 76 SSW 9.7 11.2 8 3.61 exactly 3.6 4 1.64 0.82 - 2.46 8 1.64 0.82 - 2.46 29.89 -
14:20 83 85 79 SSW 9.7 11.2 - - - - - - 29.89 -
14:30 83 85 79 South 11.7 13.4 - - - - - - 29.88 -
14:40 83 85 79 South 11.7 13.4 - - - - - - 29.88 -
14:50 83 85 79 SSW 11.7 13.4 8 3.28 exactly 3.3 5 3.28 2.46 - 4.10 8 1.64 0.82 - 2.46 29.87 -
15:10 83 85 79 South 13.6 15.7 - - - - - - 29.87 -
15:20 83 85 79 South 15.6 17.9 - - - - - - 29.86 -
15:30 83 85 77 South 15.6 17.9 - - - - - - 29.86 -
15:40 83 85 77 South 15.6 17.9 - - - - - - 29.86 -
15:50 83 85 75 South 15.6 17.9 6 3.28 exactly 3.3 6 3.28 2.46 - 4.10 8 1.64 0.82 - 2.46 29.85 -
16:10 83 85 80 South 17.5 20.1 - - - - - - 29.85 -
16:30 83 84 76 South 17.5 20.1 - - - - - - 29.85 -
16:50 83 84 78 South 17.5 20.1 6 3.61 exactly 3.6 6 3.28 2.46 - 4.10 8 1.64 0.82 - 2.46 29.85 -
17:10 83 84 74 South 17.5 20.1 - - - - - - 29.85 -
17:20 83 84 78 South 15.6 17.9 - - - - - - 29.85 -
17:30 83 84 79 South 15.6 17.9 - - - - - - 29.85 -
17:40 83 84 78 South 17.5 20.1 - - - - - - 29.85 -
18:00 83 84 79 South 17.5 20.1 - - - - - - 29.85 -0.02
18:10 83 84 79 South 17.5 20.1 - - - - - - 29.85 -
18:20 82 84 80 South 17.5 20.1 - - - - - - 29.84 -
18:30 82 84 81 South 15.6 17.9 - - - - - - 29.84 -
18:50 83 84 76 South 17.5 20.1 5 3.94 exactly 3.9 5 3.28 2.46 - 4.10 8 1.64 0.82 - 2.46 29.84 -
19:10 83 84 77 South 17.5 20.1 - - - - - - 29.83 -
19:20 83 84 79 South 17.5 20.1 - - - - - - 29.83 -
19:40 83 84 80 SSW 17.5 20.1 - - - - - - 29.83 -
19:50 83 84 80 SSW 17.5 20.1 5 4.27 exactly 4.3 5 3.28 2.46 - 4.10 13 1.64 0.82 - 2.46 29.84 -
20:10 83 84 80 SSW 17.5 20.1 - - - - - - 29.84 -
20:20 83 84 79 SSW 17.5 20.1 - - - - - - 29.85 -
20:30 83 84 80 SSW 17.5 20.1 - - - - - - 29.85 -
20:40 83 84 80 SSW 17.5 20.1 - - - - - - 29.85 -
20:50 83
-
80 SSW 17.5 20.1 5 4.27 exactly 4.3 5 3.28 2.46 - 4.10 8 1.64 0.82 - 2.46 29.85 -
21:10 83 84 80 SSW 17.5 20.1 - - - - - - 29.86 -
21:20 83 84 81 SSW 17.5 20.1 - - - - - - 29.86 -
21:30 83 84 80 SSW 17.5 20.1 - - - - - - 29.86 -
21:40 84
-
SSW 17.5 20.1 - - - - - - 29.86 -
21:50 84 84 75 SW 19.4 22.4 5 4.27 exactly 4.3 5 3.28 2.46 - 4.10 7 1.64 0.82 - 2.46 29.86 -
22:10 83 84 80 SW 17.5 20.1 - - - - - - 29.87 -
22:20 83 84 80 SW 17.5 20.1 - - - - - - 29.87 -
22:30 83 84 80 SW 17.5 20.1 - - - - - - 29.87 -
22:40 83 84 81 SW 15.6 17.9 - - - - - - 29.87 -
22:50 84 84 78 SW 17.5 20.1 6 3.94 exactly 3.9 6 3.28 2.46 - 4.10 7 1.64 0.82 - 2.46 29.87 -
23:00 84
-
78 SW 19.4 22.4 - - - - - - 29.87 +0.03
23:30 80 84 82 WNW 25.3 29.1 - - - - - - 29.88 -
23:40 79 84 85 NW 19.4 22.4 - - - - - - 29.88 -
23:50 78 84 88 NNW 17.5 20.1 5 4.27 exactly 4.3 5 4.92 4.10 - 5.74 - - - 29.87 -
00:20 78 84 84 NNW 11.7 13.4 - - - - - - 29.86 -
00:30 78 84 86 North 11.7 13.4 - - - - - - 29.86 -
00:40 78 84 84 NNW 11.7 13.4 - - - - - - 29.86 -
00:50 78 84 85 NNW 9.7 11.2 5 4.27 exactly 4.3 5 3.28 2.46 - 4.10 7 1.64 0.82 - 2.46 29.86 -
01:10 78 84 82 NNW 9.7 11.2 - - - - - - 29.86 -
01:20 78 84 84 NNW 9.7 11.2 - - - - - - 29.86 -
01:40 78 84 84 North 5.8 6.7 - - - - - - 29.86 -
02:10 78 84 82 NNE 3.9 4.5 - - - - - - 29.86 -
02:20 78 84 82 NNE 3.9 4.5 - - - - - - 29.86 -
02:30 78 84 82 ENE 1.9 2.2 - - - - - - 29.86 -
02:40 78 84 82 NNE 1.9 2.2 - - - - - - 29.86 -
02:50 78 84 82 - 0.0 0.0 7 4.59 exactly 4.6 4 1.64 0.82 - 2.46 7 3.28 2.46 - 4.10 29.86 -
03:00 78
-
84 - 0.0 0.0 - - - - - - 29.85 -0.02
03:10 78 84 84 - 0.0 0.0 - - - - - - 29.86 -
03:20 78 84 83 - 0.0 0.0 - - - - - - 29.85 -
03:30 78 84 82 South 1.9 2.2 - - - - - - 29.86 -
03:50 78 84 82 WSW 1.9 2.2 7 3.94 exactly 3.9 4 1.64 0.82 - 2.46 7 3.28 2.46 - 4.10 29.86 -

Detailed Wave Spectra

Time Water Depth Wave Height Spectral Peak Period Average Wave Period Sampling Interval Wave Record
20:00 128 ft 1.97 ft 3.4 sec 3.4 sec 0.6 sec 2400 sec
21:00 128 ft 2.03 ft 3.2 sec 3.4 sec 0.6 sec 2400 sec
22:00 128 ft 1.77 ft 3.7 sec 3.6 sec 0.6 sec 2400 sec
23:00 128 ft 1.80 ft 7.7 sec 3.3 sec 0.6 sec 2400 sec
00:00 128 ft 2.00 ft 3.4 sec 3.4 sec 0.6 sec 2400 sec
01:00 128 ft 2.20 ft 3.2 sec 3.4 sec 0.6 sec 2400 sec
02:00 128 ft 2.33 ft 3.2 sec 3.4 sec 0.6 sec 2400 sec
04:00 128 ft 2.79 ft 3.8 sec 3.7 sec 0.6 sec 2400 sec
05:00 128 ft 2.85 ft 4.2 sec 3.7 sec 0.6 sec 2400 sec
06:00 128 ft 2.99 ft 4.0 sec 3.8 sec 0.6 sec 2400 sec
07:00 128 ft 2.95 ft 4.3 sec 3.9 sec 0.6 sec 2400 sec
08:00 128 ft 3.38 ft 4.2 sec 3.9 sec 0.6 sec 2400 sec
10:00 128 ft 3.15 ft 4.5 sec 4.1 sec 0.6 sec 2400 sec
11:00 128 ft 3.18 ft 4.8 sec 4.2 sec 0.6 sec 2400 sec
14:00 128 ft 3.44 ft 8.3 sec 4.6 sec 0.6 sec 2400 sec
15:00 128 ft 3.22 ft 8.3 sec 4.6 sec 0.6 sec 2400 sec
16:00 128 ft 3.35 ft 5.9 sec 4.3 sec 0.6 sec 2400 sec
17:00 128 ft 3.58 ft 6.3 sec 4.1 sec 0.6 sec 2400 sec
19:00 128 ft 3.84 ft 4.8 sec 4.1 sec 0.6 sec 2400 sec
20:00 128 ft 4.17 ft 5.0 sec 4.2 sec 0.6 sec 2400 sec
21:00 128 ft 4.20 ft 5.0 sec 4.3 sec 0.6 sec 2400 sec
22:00 128 ft 4.23 ft 5.3 sec 4.2 sec 0.6 sec 2400 sec
00:00 128 ft 4.30 ft 4.8 sec 4.2 sec 0.6 sec 2400 sec
01:00 128 ft 4.27 ft 5.0 sec 4.4 sec 0.6 sec 2400 sec
02:00 128 ft 4.59 ft 7.1 sec 4.5 sec 0.6 sec 2400 sec